Terminal Aerodrome Forecast
Issued by NWS Topeka, KS

Home | Current Version | Previous Version | Graphics & Text | Print | Product List | Glossary On
Versions: 1 2 3 4 5 6 7 8 9 10 11 12 13 14 15 16 17
000
FTUS43 KTOP 020520
TAFTOP
TAF
KTOP 020520Z 0206/0306 17007KT P6SM SCT100
     FM020800 18006KT P6SM -RA BKN090
     FM021500 18011KT P6SM SCT100
     FM021800 18012G20KT P6SM FEW120
     FM030000 17006KT P6SM FEW120=

USA.gov is the U.S. government's official web portal to all federal, state and local government web resources and services.